Time;durP1;ratioP1;P1;durP2;ratioP2;P2;SDS_P1;SDS_P2;PMS_P1;PMS_P2;Temp;Humidity;BMP_temperature;BMP_pressure;BME280_temperature;BME280_humidity;BME280_pressure;Samples;Min_cycle;Max_cycle;Signal;HPM_P1;HPM_P2
2024/03/01 00:01:59;;;;;;;23.23;15.82;;;24.10;53.80;;;;;;6085917;28;83306;-54
2024/03/01 00:05:00;;;;;;;27.05;17.17;;;24.10;53.90;;;;;;6097421;28;86852;-52
2024/03/01 00:08:00;;;;;;;26.20;17.58;;;24.10;53.80;;;;;;6101604;28;83094;-52
2024/03/01 00:11:01;;;;;;;54.05;18.48;;;24.10;53.80;;;;;;6102173;28;84077;-54
2024/03/01 00:14:01;;;;;;;26.35;16.45;;;24.10;53.70;;;;;;6101841;28;83974;-54
2024/03/01 00:17:02;;;;;;;30.77;17.85;;;24.10;53.70;;;;;;6101652;28;83221;-55
2024/03/01 00:20:03;;;;;;;25.08;17.42;;;24.10;53.70;;;;;;6100738;28;83335;-52
2024/03/01 00:23:03;;;;;;;27.40;18.42;;;24.10;53.60;;;;;;6101157;28;84058;-55
2024/03/01 00:26:05;;;;;;;25.35;17.60;;;24.10;53.60;;;;;;6089381;28;83084;-53
2024/03/01 00:29:05;;;;;;;22.58;15.90;;;24.10;53.60;;;;;;6100886;28;83678;-54
2024/03/01 00:32:06;;;;;;;22.45;15.30;;;24.10;53.60;;;;;;6101791;28;83005;-54
2024/03/01 00:35:06;;;;;;;27.63;17.90;;;24.10;53.50;;;;;;6100670;28;83087;-54
2024/03/01 00:38:07;;;;;;;26.02;17.90;;;24.10;53.40;;;;;;6100599;28;84438;-54
2024/03/01 00:41:07;;;;;;;23.15;17.08;;;24.10;53.30;;;;;;6102908;28;83342;-54
2024/03/01 00:44:09;;;;;;;26.25;18.23;;;24.10;53.30;;;;;;6101956;28;84545;-55
2024/03/01 00:47:09;;;;;;;23.67;16.98;;;24.10;53.20;;;;;;6100631;28;82891;-55
2024/03/01 00:50:10;;;;;;;25.52;18.30;;;24.10;53.20;;;;;;6101947;28;83205;-54
2024/03/01 00:53:11;;;;;;;25.63;17.33;;;24.10;53.10;;;;;;6100434;28;84563;-56
2024/03/01 00:56:11;;;;;;;23.80;16.42;;;24.10;53.10;;;;;;6098201;28;83475;-56
2024/03/01 00:59:12;;;;;;;25.77;17.60;;;24.10;53.20;;;;;;6100775;28;83042;-54
2024/03/01 01:02:12;;;;;;;22.73;16.58;;;24.10;53.10;;;;;;6097423;28;84544;-55
2024/03/01 01:05:13;;;;;;;22.67;16.30;;;24.10;53.20;;;;;;6090007;28;83164;-55
2024/03/01 01:08:14;;;;;;;23.42;16.90;;;24.10;53.10;;;;;;6085136;28;84423;-54
2024/03/01 01:11:14;;;;;;;22.60;15.10;;;24.10;53.10;;;;;;6101011;28;83246;-55
2024/03/01 01:14:15;;;;;;;21.67;15.20;;;24.10;53.20;;;;;;6101506;28;84588;-51
2024/03/01 01:17:15;;;;;;;24.23;16.63;;;24.00;53.30;;;;;;6102328;28;83164;-55
2024/03/01 01:20:16;;;;;;;23.45;16.58;;;24.10;53.20;;;;;;6098874;28;83178;-54
2024/03/01 01:23:17;;;;;;;24.17;16.98;;;24.10;53.10;;;;;;6100319;28;83105;-53
2024/03/01 01:26:17;;;;;;;20.85;14.63;;;24.10;53.20;;;;;;6100458;28;83948;-53
2024/03/01 01:29:18;;;;;;;23.25;16.45;;;24.10;53.30;;;;;;6094305;28;83141;-54
2024/03/01 01:32:19;;;;;;;22.30;16.35;;;24.10;53.20;;;;;;6096231;28;84390;-56
2024/03/01 01:35:19;;;;;;;21.27;15.80;;;24.10;53.20;;;;;;6101113;28;82972;-54
2024/03/01 01:38:20;;;;;;;22.98;16.40;;;24.10;53.30;;;;;;6099664;28;83295;-56
2024/03/01 01:41:20;;;;;;;20.98;14.88;;;24.10;53.40;;;;;;6089576;28;83594;-55
2024/03/01 01:44:21;;;;;;;19.13;14.30;;;24.10;53.20;;;;;;6079047;28;83360;-56
2024/03/01 01:47:21;;;;;;;17.83;12.55;;;24.10;53.40;;;;;;6078068;28;83203;-56
2024/03/01 01:50:22;;;;;;;22.23;14.95;;;24.10;53.90;;;;;;6092744;28;83507;-53
2024/03/01 01:53:23;;;;;;;21.58;13.48;;;24.10;53.40;;;;;;6096291;28;83586;-52
2024/03/01 01:56:23;;;;;;;20.85;15.15;;;24.10;53.00;;;;;;6081407;28;84389;-54
2024/03/01 01:59:24;;;;;;;22.00;16.08;;;24.10;52.90;;;;;;6099549;28;83263;-50
2024/03/01 02:02:24;;;;;;;21.33;15.43;;;24.10;52.90;;;;;;6083588;28;86113;-51
2024/03/01 02:05:25;;;;;;;23.48;16.30;;;24.10;52.70;;;;;;6091173;28;84268;-53
2024/03/01 02:08:25;;;;;;;22.55;15.70;;;24.10;52.90;;;;;;6086004;28;83866;-52
2024/03/01 02:11:26;;;;;;;21.85;15.75;;;24.10;52.70;;;;;;6099978;28;83494;-50
2024/03/01 02:14:27;;;;;;;20.08;15.50;;;24.10;52.90;;;;;;6101062;28;83245;-50
2024/03/01 02:17:27;;;;;;;20.65;15.32;;;24.10;52.90;;;;;;6093219;28;82911;-53
2024/03/01 02:20:29;;;;;;;23.90;16.33;;;24.10;52.70;;;;;;6099970;28;83340;-49
2024/03/01 02:23:30;;;;;;;23.83;15.60;;;24.10;52.60;;;;;;6101687;28;83846;-54
2024/03/01 02:26:30;;;;;;;22.75;16.35;;;24.10;52.60;;;;;;6104195;28;82957;-54
2024/03/01 02:29:31;;;;;;;22.98;15.98;;;24.10;52.60;;;;;;6104338;28;83186;-50
2024/03/01 02:32:32;;;;;;;25.85;17.45;;;24.10;52.60;;;;;;6103641;28;85331;-51
2024/03/01 02:35:33;;;;;;;24.52;17.08;;;24.10;52.60;;;;;;6098206;28;83491;-55
2024/03/01 02:38:33;;;;;;;21.80;15.77;;;24.10;52.40;;;;;;6098201;28;84282;-54
2024/03/01 02:41:34;;;;;;;22.67;16.55;;;24.10;52.30;;;;;;6103010;28;83321;-54
2024/03/01 02:44:35;;;;;;;22.17;15.68;;;24.10;52.40;;;;;;6093025;28;83231;-53
2024/03/01 02:47:36;;;;;;;21.92;15.88;;;24.10;52.30;;;;;;6093562;28;83199;-54
2024/03/01 02:50:36;;;;;;;25.45;16.60;;;24.10;52.40;;;;;;6082287;28;82783;-54
2024/03/01 02:53:37;;;;;;;19.20;14.82;;;24.10;52.30;;;;;;6093778;28;85942;-51
2024/03/01 02:56:37;;;;;;;23.52;17.17;;;24.10;53.00;;;;;;6092409;28;83143;-54
2024/03/01 02:59:38;;;;;;;21.25;15.52;;;24.10;52.50;;;;;;6081038;28;83721;-51
2024/03/01 03:02:38;;;;;;;20.75;15.05;;;24.00;52.40;;;;;;6080033;28;83023;-51
2024/03/01 03:05:39;;;;;;;19.65;14.88;;;24.00;52.40;;;;;;6091197;28;84452;-54
2024/03/01 03:08:39;;;;;;;22.92;15.70;;;24.10;52.40;;;;;;6102257;28;82984;-54
2024/03/01 03:11:40;;;;;;;21.63;16.25;;;24.10;52.30;;;;;;6102924;28;84522;-53
2024/03/01 03:14:40;;;;;;;22.08;14.82;;;24.00;52.20;;;;;;6092395;28;83903;-53
2024/03/01 03:17:41;;;;;;;20.55;14.20;;;24.10;52.20;;;;;;6103067;28;83457;-54
2024/03/01 03:20:42;;;;;;;20.17;14.20;;;24.10;52.20;;;;;;6088067;28;82787;-55
2024/03/01 03:23:42;;;;;;;21.60;15.30;;;24.00;52.10;;;;;;6079115;28;83118;-51
2024/03/01 03:26:43;;;;;;;21.00;15.10;;;24.10;52.10;;;;;;6080675;28;83531;-55
2024/03/01 03:29:43;;;;;;;21.13;14.85;;;24.10;52.20;;;;;;6084668;28;87242;-54
2024/03/01 03:32:44;;;;;;;19.48;14.70;;;24.10;52.30;;;;;;6100277;28;83247;-54
2024/03/01 03:35:44;;;;;;;19.90;15.18;;;24.10;52.30;;;;;;6101702;28;83308;-49
2024/03/01 03:38:45;;;;;;;20.23;15.20;;;24.10;52.20;;;;;;6098436;28;85687;-52
2024/03/01 03:41:45;;;;;;;24.13;16.23;;;24.10;52.20;;;;;;6091971;28;85373;-53
2024/03/01 03:44:46;;;;;;;21.92;15.50;;;24.10;52.10;;;;;;6080076;28;83326;-54
2024/03/01 03:47:46;;;;;;;19.65;14.30;;;24.10;52.10;;;;;;6100739;28;83201;-54
2024/03/01 03:50:47;;;;;;;19.25;13.88;;;24.10;52.10;;;;;;6101918;28;82980;-55
2024/03/01 03:53:48;;;;;;;20.45;15.55;;;24.10;52.20;;;;;;6086658;28;83522;-54
2024/03/01 03:56:48;;;;;;;22.08;15.82;;;24.10;52.00;;;;;;6092804;28;84000;-53
2024/03/01 03:59:49;;;;;;;21.42;15.18;;;24.10;52.00;;;;;;6081922;28;83083;-51
2024/03/01 04:02:49;;;;;;;17.38;13.18;;;24.10;52.10;;;;;;6097049;28;83926;-53
2024/03/01 04:05:50;;;;;;;19.42;14.65;;;24.10;52.40;;;;;;6096534;28;83127;-54
2024/03/01 04:08:50;;;;;;;18.52;13.93;;;24.10;52.40;;;;;;6094638;28;83478;-53
2024/03/01 04:11:51;;;;;;;18.98;13.65;;;24.10;52.60;;;;;;6099483;28;83151;-51
2024/03/01 04:14:51;;;;;;;16.98;13.13;;;24.10;52.50;;;;;;6096187;28;83178;-55
2024/03/01 04:17:52;;;;;;;18.40;13.40;;;24.00;52.40;;;;;;6097766;28;87551;-55
2024/03/01 04:20:53;;;;;;;20.40;13.77;;;24.10;52.50;;;;;;6098910;28;83938;-55
2024/03/01 04:23:53;;;;;;;18.27;13.85;;;24.10;52.20;;;;;;6095849;28;83980;-53
2024/03/01 04:26:54;;;;;;;16.98;12.85;;;24.10;52.00;;;;;;6095431;28;83673;-56
2024/03/01 04:29:54;;;;;;;18.60;14.30;;;24.00;51.80;;;;;;6102592;28;83080;-56
2024/03/01 04:32:55;;;;;;;19.98;14.45;;;24.00;51.90;;;;;;6097342;28;83961;-56
2024/03/01 04:35:55;;;;;;;20.10;14.57;;;24.00;51.80;;;;;;6097278;28;83214;-54
2024/03/01 04:38:56;;;;;;;19.08;14.48;;;24.00;51.80;;;;;;6099900;28;83998;-53
2024/03/01 04:41:58;;;;;;;21.10;15.18;;;24.00;51.80;;;;;;6101643;28;84957;-55
2024/03/01 04:44:58;;;;;;;23.10;14.07;;;23.90;51.70;;;;;;6101626;28;83618;-56
2024/03/01 04:47:59;;;;;;;19.30;13.88;;;24.00;52.30;;;;;;6099781;28;83761;-59
2024/03/01 04:50:59;;;;;;;20.00;15.32;;;24.00;51.70;;;;;;6101381;28;83109;-59
2024/03/01 04:54:00;;;;;;;21.60;14.38;;;24.00;51.70;;;;;;6101977;28;83437;-59
2024/03/01 04:57:05;;;;;;;17.73;13.65;;;24.00;51.70;;;;;;6102127;28;83162;-59
2024/03/01 05:00:13;;;;;;;21.83;15.15;;;24.00;51.80;;;;;;6101666;28;83469;-60
2024/03/01 05:03:13;;;;;;;18.30;13.02;;;24.00;51.70;;;;;;6097490;28;86198;-56
2024/03/01 05:06:14;;;;;;;21.95;14.32;;;24.00;51.90;;;;;;6097527;28;84868;-58
2024/03/01 05:09:15;;;;;;;18.77;13.65;;;24.00;52.20;;;;;;6093615;28;84354;-53
2024/03/01 05:12:16;;;;;;;18.63;13.65;;;24.00;52.20;;;;;;6076438;28;83550;-53
2024/03/01 05:15:16;;;;;;;16.73;13.75;;;24.00;51.80;;;;;;6088923;28;83450;-51
2024/03/01 05:18:18;;;;;;;17.58;11.88;;;24.00;52.30;;;;;;6089713;28;83178;-54
2024/03/01 05:21:22;;;;;;;17.73;12.98;;;24.10;52.60;;;;;;6090812;28;85152;-53
2024/03/01 05:24:23;;;;;;;17.38;12.60;;;24.10;52.60;;;;;;6087742;28;83201;-53
2024/03/01 05:27:23;;;;;;;19.90;13.25;;;24.10;52.50;;;;;;6086208;28;83693;-53
2024/03/01 05:30:24;;;;;;;17.02;12.73;;;24.10;52.90;;;;;;6088902;28;83524;-58
2024/03/01 05:33:24;;;;;;;17.30;12.63;;;24.10;52.80;;;;;;6090298;28;83354;-56
2024/03/01 05:36:25;;;;;;;22.67;14.02;;;24.10;53.20;;;;;;6100214;28;83356;-55
2024/03/01 05:39:26;;;;;;;22.23;13.27;;;24.10;53.50;;;;;;6084712;28;85006;-55
2024/03/01 05:42:26;;;;;;;22.50;14.27;;;24.10;53.50;;;;;;6081498;28;83544;-54
2024/03/01 05:45:27;;;;;;;22.08;12.63;;;24.10;53.40;;;;;;6082287;28;87160;-55
2024/03/01 05:48:27;;;;;;;20.42;13.23;;;24.10;53.30;;;;;;6089959;28;83314;-58
2024/03/01 05:51:28;;;;;;;29.75;14.00;;;24.10;53.40;;;;;;6088845;28;83366;-59
2024/03/01 05:54:29;;;;;;;21.63;14.63;;;24.10;53.30;;;;;;6093628;28;83932;-55
2024/03/01 05:57:30;;;;;;;25.42;14.50;;;24.10;53.10;;;;;;6090630;28;83435;-57
2024/03/01 06:00:30;;;;;;;17.42;14.05;;;24.10;53.40;;;;;;6091415;28;82966;-57
2024/03/01 06:03:31;;;;;;;19.80;13.82;;;24.10;53.20;;;;;;6092141;28;83233;-54
2024/03/01 06:06:32;;;;;;;26.02;14.88;;;24.10;53.20;;;;;;6098228;28;83625;-58
2024/03/01 06:09:33;;;;;;;26.25;13.95;;;24.10;53.40;;;;;;6082032;28;85239;-55
2024/03/01 06:12:33;;;;;;;19.60;13.52;;;24.10;52.90;;;;;;6088183;28;83524;-55
2024/03/01 06:15:34;;;;;;;22.63;14.48;;;24.10;53.50;;;;;;6075247;28;83070;-56
2024/03/01 06:18:34;;;;;;;21.38;14.98;;;24.10;52.60;;;;;;6076128;28;83260;-56
2024/03/01 06:21:35;;;;;;;21.88;15.13;;;24.00;52.50;;;;;;6075511;28;83673;-56
2024/03/01 06:24:36;;;;;;;24.17;15.82;;;24.00;52.40;;;;;;6088057;28;84796;-56
2024/03/01 06:27:37;;;;;;;20.65;15.38;;;24.00;52.30;;;;;;6094442;28;85630;-56
2024/03/01 06:30:38;;;;;;;21.73;15.68;;;24.00;52.20;;;;;;6089629;28;86016;-54
2024/03/01 06:33:40;;;;;;;21.98;15.88;;;24.00;52.30;;;;;;6094993;28;83307;-56
2024/03/01 06:36:41;;;;;;;20.92;15.02;;;23.90;52.20;;;;;;6099232;28;83593;-56
2024/03/01 06:39:41;;;;;;;22.92;16.00;;;24.00;52.00;;;;;;6085819;28;83193;-55
2024/03/01 06:42:42;;;;;;;23.75;16.90;;;24.00;51.80;;;;;;6086735;28;83297;-58
2024/03/01 06:45:42;;;;;;;28.08;16.73;;;23.90;51.90;;;;;;6094663;28;86389;-55
2024/03/01 06:48:43;;;;;;;25.80;16.58;;;24.00;52.00;;;;;;6079311;28;83750;-57
2024/03/01 06:51:44;;;;;;;23.02;16.23;;;24.00;51.80;;;;;;6091380;28;83480;-55
2024/03/01 06:54:44;;;;;;;23.45;16.90;;;24.00;51.80;;;;;;6074966;28;85484;-54
2024/03/01 06:57:45;;;;;;;27.80;16.80;;;24.00;51.80;;;;;;6072104;28;88274;-54
2024/03/01 07:00:47;;;;;;;26.25;17.25;;;24.00;51.80;;;;;;6091418;28;83752;-55
2024/03/01 07:03:48;;;;;;;24.75;17.15;;;23.90;51.80;;;;;;6088637;28;83566;-56
2024/03/01 07:06:48;;;;;;;23.50;16.42;;;23.90;51.70;;;;;;6096905;28;83501;-56
2024/03/01 07:09:50;;;;;;;27.98;18.60;;;23.90;51.70;;;;;;6099605;28;83310;-53
2024/03/01 07:12:50;;;;;;;25.33;17.23;;;23.90;51.50;;;;;;6100931;28;85486;-56
2024/03/01 07:15:51;;;;;;;23.80;16.40;;;23.90;51.50;;;;;;6102533;28;83617;-55
2024/03/01 07:18:51;;;;;;;24.33;17.58;;;23.80;51.40;;;;;;6089123;28;86248;-56
2024/03/01 07:21:52;;;;;;;23.60;16.88;;;23.90;51.50;;;;;;6084768;28;83426;-57
2024/03/01 07:24:53;;;;;;;26.27;18.42;;;23.90;51.30;;;;;;6094036;28;83147;-56
2024/03/01 07:27:53;;;;;;;23.20;16.90;;;23.90;51.50;;;;;;6097040;28;83191;-56
2024/03/01 07:30:54;;;;;;;23.08;17.17;;;23.80;51.40;;;;;;6093192;28;84545;-54
2024/03/01 07:33:55;;;;;;;24.65;17.08;;;23.90;51.40;;;;;;6085393;28;84155;-55
2024/03/01 07:36:56;;;;;;;25.85;16.02;;;23.80;51.40;;;;;;6093497;28;87648;-56
2024/03/01 07:39:57;;;;;;;27.10;18.05;;;23.90;51.60;;;;;;6074355;28;86792;-55
2024/03/01 07:42:57;;;;;;;24.58;17.50;;;23.80;51.50;;;;;;6093264;28;83256;-56
2024/03/01 07:45:58;;;;;;;24.25;18.27;;;23.80;51.40;;;;;;6097699;28;83035;-57
2024/03/01 07:48:58;;;;;;;24.50;17.13;;;23.90;51.20;;;;;;6094918;28;83320;-55
2024/03/01 07:51:59;;;;;;;30.38;18.45;;;23.90;51.10;;;;;;6093455;28;83211;-54
2024/03/01 07:54:59;;;;;;;23.73;17.48;;;23.90;51.20;;;;;;6096007;28;83980;-56
2024/03/01 07:58:00;;;;;;;23.58;16.98;;;23.90;51.10;;;;;;6092892;28;85396;-56
2024/03/01 08:01:00;;;;;;;25.05;17.13;;;23.90;51.60;;;;;;6092705;28;83335;-55
2024/03/01 08:04:01;;;;;;;25.67;17.27;;;23.90;51.20;;;;;;6099010;28;83976;-55
2024/03/01 08:07:02;;;;;;;22.25;16.08;;;23.90;51.20;;;;;;6100829;28;82851;-55
2024/03/01 08:10:02;;;;;;;23.23;16.38;;;23.90;51.20;;;;;;6100088;28;83012;-55
2024/03/01 08:13:03;;;;;;;25.38;17.63;;;23.90;51.10;;;;;;6099942;28;86587;-55
2024/03/01 08:16:03;;;;;;;22.92;16.35;;;23.90;51.20;;;;;;6100187;28;83867;-52
2024/03/01 08:19:04;;;;;;;23.88;16.77;;;23.90;51.20;;;;;;6100485;28;83670;-55
2024/03/01 08:22:04;;;;;;;25.92;16.13;;;23.90;51.00;;;;;;6098309;28;84102;-51
2024/03/01 08:25:06;;;;;;;22.05;16.02;;;23.90;50.90;;;;;;6100879;28;83762;-55
2024/03/01 08:28:07;;;;;;;21.63;15.88;;;23.90;50.90;;;;;;6099286;28;83682;-54
2024/03/01 08:31:07;;;;;;;26.17;17.48;;;23.90;50.90;;;;;;6082248;28;83080;-54
2024/03/01 08:34:09;;;;;;;23.20;16.92;;;23.90;50.90;;;;;;6088032;28;83318;-59
2024/03/01 08:37:09;;;;;;;22.63;16.48;;;23.90;50.80;;;;;;6096818;28;83299;-58
2024/03/01 08:40:10;;;;;;;29.35;17.92;;;23.90;50.90;;;;;;6099910;28;83292;-58
2024/03/01 08:43:10;;;;;;;26.60;17.80;;;23.90;50.80;;;;;;6098132;28;85725;-60
2024/03/01 08:46:12;;;;;;;20.95;15.55;;;23.90;50.70;;;;;;6098757;28;83551;-54
2024/03/01 08:49:13;;;;;;;23.77;16.98;;;23.90;50.90;;;;;;6092844;28;85088;-51
2024/03/01 08:52:13;;;;;;;24.60;18.38;;;24.00;51.40;;;;;;6094070;28;83850;-53
2024/03/01 08:55:15;;;;;;;27.25;18.30;;;24.00;50.60;;;;;;6092802;28;83485;-55
2024/03/01 08:58:15;;;;;;;25.00;17.15;;;24.00;50.90;;;;;;6084186;28;83028;-51
2024/03/01 09:01:16;;;;;;;24.75;17.40;;;24.00;51.40;;;;;;6092133;28;83238;-55
2024/03/01 09:04:17;;;;;;;27.15;18.20;;;23.90;51.10;;;;;;6088153;28;83447;-52
2024/03/01 09:07:17;;;;;;;24.98;18.02;;;24.00;51.30;;;;;;6086418;28;85614;-54
2024/03/01 09:10:18;;;;;;;24.42;16.77;;;23.90;51.20;;;;;;6090919;28;83890;-55
2024/03/01 09:13:18;;;;;;;23.70;17.25;;;23.90;51.50;;;;;;6097469;28;83992;-52
2024/03/01 09:16:20;;;;;;;28.10;18.60;;;23.90;51.60;;;;;;6097837;28;84413;-56
2024/03/01 09:19:20;;;;;;;24.20;17.77;;;23.90;51.40;;;;;;6097032;28;84523;-54
2024/03/01 09:22:24;;;;;;;22.23;15.90;;;24.00;51.50;;;;;;6098647;28;84719;-56
2024/03/01 09:25:24;;;;;;;27.08;17.92;;;23.90;51.60;;;;;;6094810;28;83492;-55
2024/03/01 09:28:25;;;;;;;27.67;18.13;;;23.90;51.40;;;;;;6086964;28;83058;-54
2024/03/01 09:31:25;;;;;;;24.77;17.58;;;24.00;51.60;;;;;;6087056;28;83422;-55
2024/03/01 09:34:26;;;;;;;22.92;16.02;;;24.00;51.50;;;;;;6090304;28;83498;-56
2024/03/01 09:37:26;;;;;;;23.88;17.10;;;24.00;51.80;;;;;;6090588;28;83304;-54
2024/03/01 09:40:27;;;;;;;24.85;17.23;;;24.00;51.80;;;;;;6098662;28;83196;-55
2024/03/01 09:43:28;;;;;;;24.58;16.70;;;24.00;51.70;;;;;;6086598;28;83527;-54
2024/03/01 09:46:28;;;;;;;24.00;16.17;;;24.00;51.80;;;;;;6077056;28;86062;-55
2024/03/01 09:49:29;;;;;;;26.80;16.73;;;24.00;52.20;;;;;;6083231;28;83350;-55
2024/03/01 09:52:30;;;;;;;23.10;16.83;;;24.00;51.80;;;;;;6090350;28;83014;-55
2024/03/01 09:55:32;;;;;;;24.95;16.73;;;24.00;51.80;;;;;;6097951;28;84262;-54
2024/03/01 09:58:32;;;;;;;25.90;16.25;;;24.00;51.90;;;;;;6098625;28;82987;-55
2024/03/01 10:01:33;;;;;;;22.90;16.48;;;24.00;51.80;;;;;;6092438;28;83502;-54
2024/03/01 10:04:33;;;;;;;27.88;16.83;;;24.00;51.70;;;;;;6091902;28;84197;-51
2024/03/01 10:07:34;;;;;;;32.95;20.75;;;23.90;51.60;;;;;;6086910;28;82749;-52
2024/03/01 10:10:36;;;;;;;30.75;21.85;;;23.90;51.40;;;;;;6087320;28;83441;-54
2024/03/01 10:13:36;;;;;;;32.97;24.38;;;23.90;51.00;;;;;;6077285;28;83859;-54
2024/03/01 10:16:37;;;;;;;37.67;24.77;;;23.90;50.80;;;;;;6091102;28;84046;-54
2024/03/01 10:19:37;;;;;;;38.65;25.52;;;23.90;50.70;;;;;;6084505;28;83418;-51
2024/03/01 10:22:38;;;;;;;37.67;26.27;;;23.80;50.40;;;;;;6081563;28;83425;-53
2024/03/01 10:25:41;;;;;;;40.58;25.95;;;23.80;50.50;;;;;;6090913;28;83034;-53
2024/03/01 10:28:41;;;;;;;39.67;26.65;;;23.80;50.40;;;;;;6085885;28;82931;-52
2024/03/01 10:31:42;;;;;;;39.58;27.75;;;23.80;50.40;;;;;;6088990;28;85199;-54
2024/03/01 10:34:43;;;;;;;39.78;25.92;;;23.80;50.20;;;;;;6090251;28;83406;-52
2024/03/01 10:37:43;;;;;;;41.53;28.20;;;23.80;49.80;;;;;;6089573;28;83516;-54
2024/03/01 10:40:44;;;;;;;40.72;27.55;;;23.80;49.70;;;;;;6092690;28;83268;-52
2024/03/01 10:43:44;;;;;;;38.50;28.15;;;23.80;49.70;;;;;;6082078;28;83934;-53
2024/03/01 10:46:45;;;;;;;39.40;27.38;;;23.80;49.70;;;;;;6087185;28;83586;-52
2024/03/01 10:49:45;;;;;;;40.53;27.33;;;23.80;49.80;;;;;;6102063;28;84947;-52
2024/03/01 10:52:46;;;;;;;38.00;27.88;;;23.90;49.40;;;;;;6098936;28;83030;-52
2024/03/01 10:55:46;;;;;;;40.78;27.23;;;23.90;49.20;;;;;;6091303;28;83275;-54
2024/03/01 10:58:47;;;;;;;39.72;27.70;;;23.90;48.70;;;;;;6101668;28;83241;-51
2024/03/01 11:01:50;;;;;;;37.03;26.38;;;23.90;48.10;;;;;;6103033;28;84735;-52
2024/03/01 11:04:51;;;;;;;37.05;25.95;;;23.90;48.20;;;;;;6102593;28;87309;-55
2024/03/01 11:07:51;;;;;;;39.08;25.98;;;24.00;48.20;;;;;;6099961;28;83499;-56
2024/03/01 11:10:53;;;;;;;42.65;25.38;;;24.00;48.20;;;;;;6099764;28;83243;-56
2024/03/01 11:13:54;;;;;;;34.65;24.17;;;24.10;48.10;;;;;;6088876;28;84682;-56
2024/03/01 11:16:55;;;;;;;35.20;24.33;;;24.10;48.00;;;;;;6097150;28;83565;-54
2024/03/01 11:19:56;;;;;;;35.30;23.83;;;24.20;48.10;;;;;;6086013;28;83444;-55
2024/03/01 11:22:56;;;;;;;30.60;21.75;;;24.30;48.00;;;;;;6087492;28;83546;-55
2024/03/01 11:25:57;;;;;;;30.88;21.80;;;24.30;48.00;;;;;;6094507;28;83501;-56
2024/03/01 11:28:57;;;;;;;29.00;19.10;;;24.30;48.00;;;;;;6099926;28;83274;-55
2024/03/01 11:31:58;;;;;;;24.73;17.38;;;24.40;48.00;;;;;;6101669;28;83212;-55
2024/03/01 11:34:59;;;;;;;24.05;16.75;;;24.50;48.00;;;;;;6101818;28;83506;-54
2024/03/01 11:37:59;;;;;;;22.48;15.65;;;24.50;48.10;;;;;;6101335;28;84115;-53
2024/03/01 11:41:00;;;;;;;25.02;16.52;;;24.50;48.20;;;;;;6096960;28;83314;-52
2024/03/01 11:44:02;;;;;;;22.40;15.70;;;24.50;48.30;;;;;;6102080;28;84641;-54
2024/03/01 11:47:03;;;;;;;22.38;14.93;;;24.50;48.50;;;;;;6088735;28;83502;-55
2024/03/01 11:50:07;;;;;;;19.25;14.40;;;24.50;48.50;;;;;;6091124;28;84436;-55
2024/03/01 11:53:07;;;;;;;20.58;14.65;;;24.50;48.80;;;;;;6085915;28;83178;-55
2024/03/01 11:56:08;;;;;;;20.58;14.10;;;24.50;49.00;;;;;;6092923;28;86649;-53
2024/03/01 11:59:09;;;;;;;19.65;13.93;;;24.40;48.90;;;;;;6095744;28;83253;-52
2024/03/01 12:02:09;;;;;;;18.98;13.85;;;24.40;49.00;;;;;;6087861;28;83411;-53
2024/03/01 12:05:11;;;;;;;17.95;12.82;;;24.40;48.90;;;;;;6090553;28;83002;-53
2024/03/01 12:08:11;;;;;;;17.40;12.75;;;24.50;48.90;;;;;;6089517;28;83135;-52
2024/03/01 12:11:12;;;;;;;18.08;13.25;;;24.40;48.80;;;;;;6087170;28;83305;-54
2024/03/01 12:14:13;;;;;;;20.35;13.20;;;24.40;49.00;;;;;;6093173;28;83661;-51
2024/03/01 12:17:14;;;;;;;21.77;12.98;;;24.40;49.10;;;;;;6098037;28;83523;-52
2024/03/01 12:20:16;;;;;;;19.67;13.82;;;24.40;49.10;;;;;;6094188;28;83014;-54
2024/03/01 12:23:16;;;;;;;18.30;12.80;;;24.40;49.30;;;;;;6089099;28;83420;-55
2024/03/01 12:26:17;;;;;;;16.70;13.43;;;24.30;49.30;;;;;;6096326;28;83182;-54
2024/03/01 12:29:18;;;;;;;18.60;13.13;;;24.30;49.60;;;;;;6090859;28;83393;-55
2024/03/01 12:32:18;;;;;;;20.15;14.20;;;24.30;49.60;;;;;;6086723;28;84154;-49
2024/03/01 12:35:19;;;;;;;19.75;13.20;;;24.30;49.60;;;;;;6097613;28;84536;-54
2024/03/01 12:38:20;;;;;;;16.75;13.02;;;24.30;50.30;;;;;;6092331;28;83556;-50
2024/03/01 12:41:20;;;;;;;17.77;12.95;;;24.30;50.20;;;;;;6097265;28;83941;-54
2024/03/01 12:44:21;;;;;;;17.52;12.40;;;24.30;50.30;;;;;;6099018;28;83261;-54
2024/03/01 12:47:22;;;;;;;15.57;11.82;;;24.30;50.40;;;;;;6097833;28;86406;-54
2024/03/01 12:50:22;;;;;;;17.85;12.02;;;24.20;50.30;;;;;;6098202;28;83017;-56
2024/03/01 12:53:23;;;;;;;16.95;11.70;;;24.20;50.20;;;;;;6094834;28;84481;-56
2024/03/01 12:56:25;;;;;;;15.60;10.93;;;24.20;50.30;;;;;;6097628;28;84311;-57
2024/03/01 12:59:25;;;;;;;15.95;11.52;;;24.20;50.60;;;;;;6098312;28;85432;-55
2024/03/01 13:02:26;;;;;;;15.68;11.60;;;24.30;50.90;;;;;;6098605;28;83082;-54
2024/03/01 13:05:26;;;;;;;15.30;11.80;;;24.20;50.90;;;;;;6099460;28;83607;-54
2024/03/01 13:08:27;;;;;;;15.65;11.35;;;24.20;50.90;;;;;;6098543;28;86730;-54
2024/03/01 13:11:28;;;;;;;14.82;11.25;;;24.20;50.80;;;;;;6093607;28;83294;-54
2024/03/01 13:14:29;;;;;;;16.50;11.60;;;24.20;50.80;;;;;;6085794;28;86649;-54
2024/03/01 13:17:30;;;;;;;20.65;12.77;;;24.20;50.80;;;;;;6100287;28;85464;-55
2024/03/01 13:20:31;;;;;;;15.48;12.30;;;24.20;50.80;;;;;;6098703;28;83365;-55
2024/03/01 13:23:31;;;;;;;16.92;11.52;;;24.20;50.80;;;;;;6099693;28;83165;-51
2024/03/01 13:26:35;;;;;;;18.52;12.27;;;24.10;50.70;;;;;;6098226;28;83256;-55
2024/03/01 13:29:35;;;;;;;22.55;14.05;;;24.20;50.90;;;;;;6091252;28;83630;-58
2024/03/01 13:32:36;;;;;;;17.88;11.88;;;24.10;50.90;;;;;;6088068;28;84208;-55
2024/03/01 13:35:37;;;;;;;18.15;12.13;;;24.10;51.00;;;;;;6094755;28;84296;-56
2024/03/01 13:38:38;;;;;;;16.38;11.75;;;24.10;50.90;;;;;;6083683;28;85049;-57
2024/03/01 13:41:38;;;;;;;19.10;11.70;;;24.10;50.80;;;;;;6086619;28;83027;-57
2024/03/01 13:44:39;;;;;;;20.45;12.70;;;24.10;50.70;;;;;;6073963;28;83581;-57
2024/03/01 13:47:40;;;;;;;20.63;12.10;;;24.10;50.70;;;;;;6074916;28;83563;-54
2024/03/01 13:50:40;;;;;;;18.42;12.05;;;24.10;50.70;;;;;;6074966;28;83148;-57
2024/03/01 13:53:41;;;;;;;17.95;12.90;;;24.10;50.70;;;;;;6075329;28;87042;-57
2024/03/01 13:56:42;;;;;;;18.42;12.38;;;24.10;50.70;;;;;;6074700;28;84120;-56
2024/03/01 13:59:43;;;;;;;19.23;12.73;;;24.10;50.70;;;;;;6087887;28;84324;-57
2024/03/01 14:02:44;;;;;;;19.40;12.70;;;24.10;50.60;;;;;;6080386;28;85110;-57
2024/03/01 14:05:46;;;;;;;18.00;11.77;;;24.10;50.70;;;;;;6099377;28;84172;-58
2024/03/01 14:08:46;;;;;;;20.98;12.95;;;24.10;50.60;;;;;;6100428;28;83277;-57
2024/03/01 14:11:47;;;;;;;17.13;11.95;;;24.00;50.90;;;;;;6088473;28;83242;-56
2024/03/01 14:14:47;;;;;;;23.02;12.73;;;24.00;51.20;;;;;;6094874;28;83717;-56
2024/03/01 14:17:48;;;;;;;24.00;12.82;;;24.00;51.70;;;;;;6085679;28;84764;-55
2024/03/01 14:20:48;;;;;;;18.98;12.88;;;24.10;51.30;;;;;;6083613;28;83820;-52
2024/03/01 14:23:51;;;;;;;23.33;12.02;;;24.10;51.50;;;;;;6081792;28;83328;-52
2024/03/01 14:26:52;;;;;;;19.67;12.38;;;24.10;51.70;;;;;;6082273;28;82888;-54
2024/03/01 14:29:54;;;;;;;21.88;12.02;;;24.10;51.70;;;;;;6082560;28;83642;-52
2024/03/01 14:32:54;;;;;;;24.65;13.25;;;24.20;51.60;;;;;;6083431;28;83220;-53
2024/03/01 14:35:55;;;;;;;18.20;12.63;;;24.10;51.30;;;;;;6082293;28;83991;-53
2024/03/01 14:38:55;;;;;;;19.20;12.90;;;24.10;51.90;;;;;;6094707;28;84060;-53
2024/03/01 14:41:56;;;;;;;20.27;11.90;;;24.20;52.00;;;;;;6098946;28;83710;-53
2024/03/01 14:44:56;;;;;;;19.27;13.20;;;24.20;52.00;;;;;;6089894;28;84762;-56
2024/03/01 14:47:57;;;;;;;24.88;13.07;;;24.20;51.90;;;;;;6092475;28;83869;-58
2024/03/01 14:50:58;;;;;;;25.13;13.15;;;24.20;52.10;;;;;;6096177;28;87591;-55
2024/03/01 14:53:59;;;;;;;18.88;12.65;;;24.20;52.00;;;;;;6096592;28;83437;-53
2024/03/01 14:57:00;;;;;;;16.73;12.52;;;24.20;52.10;;;;;;6096819;28;83208;-54
2024/03/01 15:00:00;;;;;;;21.55;12.98;;;24.20;52.10;;;;;;6091316;28;83587;-57
2024/03/01 15:03:02;;;;;;;20.38;12.65;;;24.20;52.10;;;;;;6092352;28;83412;-57
2024/03/01 15:06:03;;;;;;;18.27;12.80;;;24.20;52.20;;;;;;6097566;28;83527;-55
2024/03/01 15:09:05;;;;;;;19.98;12.35;;;24.20;52.20;;;;;;6097966;28;83823;-55
2024/03/01 15:12:06;;;;;;;18.05;12.05;;;24.20;52.20;;;;;;6099289;28;83032;-53
2024/03/01 15:15:09;;;;;;;19.20;13.32;;;24.20;52.20;;;;;;6094115;28;86481;-54
2024/03/01 15:18:11;;;;;;;20.30;13.98;;;24.20;52.20;;;;;;6089307;28;87486;-56